createdAt,value
2023-04-25T00:00:11.071Z,84.31
2023-04-25T00:01:11.045Z,83.90
2023-04-25T00:02:11.074Z,84.52
2023-04-25T00:03:11.177Z,84.20
2023-04-25T00:04:11.172Z,84.82
2023-04-25T00:05:10.986Z,84.72
2023-04-25T00:06:10.890Z,84.72
2023-04-25T00:07:10.835Z,84.82
2023-04-25T00:08:10.806Z,84.72
2023-04-25T00:09:10.834Z,84.72
2023-04-25T00:10:10.727Z,84.72
2023-04-25T00:11:10.701Z,83.90
2023-04-25T00:12:10.676Z,84.52
2023-04-25T00:13:10.642Z,84.41
2023-04-25T00:14:10.605Z,84.72
2023-04-25T00:15:10.638Z,84.72
2023-04-25T00:16:10.554Z,84.82
2023-04-25T00:17:10.492Z,84.92
2023-04-25T00:18:10.516Z,84.52
2023-04-25T00:19:10.424Z,84.72
2023-04-25T00:20:10.388Z,84.20
2023-04-25T00:21:10.362Z,84.72
2023-04-25T00:22:10.322Z,84.52
2023-04-25T00:23:10.350Z,84.52
2023-04-25T00:24:10.256Z,84.72
2023-04-25T00:25:10.226Z,84.61
2023-04-25T00:26:10.199Z,84.52
2023-04-25T00:27:10.154Z,84.61
2023-04-25T00:28:10.130Z,84.86
2023-04-25T00:29:10.147Z,84.82
2023-04-25T00:30:10.050Z,84.66
2023-04-25T00:31:10.067Z,84.86
2023-04-25T00:32:09.999Z,84.66
2023-04-25T00:33:09.968Z,85.03
2023-04-25T00:34:09.912Z,84.31
2023-04-25T00:35:09.933Z,84.10
2023-04-25T00:36:09.848Z,84.72
2023-04-25T00:37:09.825Z,84.61
2023-04-25T00:38:09.785Z,84.52
2023-04-25T00:39:09.742Z,84.61
2023-04-25T00:40:09.706Z,84.61
2023-04-25T00:41:09.753Z,84.61
2023-04-25T00:42:09.650Z,84.66
2023-04-25T00:43:09.619Z,84.72
2023-04-25T00:44:09.575Z,84.61
2023-04-25T00:45:09.544Z,84.55
2023-04-25T00:46:09.555Z,84.66
2023-04-25T00:47:09.534Z,84.45
2023-04-25T00:48:09.435Z,84.55
2023-04-25T00:49:09.414Z,84.66
2023-04-25T00:50:09.377Z,84.45
2023-04-25T00:51:09.333Z,84.66
2023-04-25T00:52:09.315Z,84.86
2023-04-25T00:53:09.331Z,84.34
2023-04-25T00:54:09.240Z,84.76
2023-04-25T00:55:09.209Z,84.86
2023-04-25T00:56:09.174Z,84.96
2023-04-25T00:57:09.145Z,84.61
2023-04-25T00:58:09.105Z,84.61
2023-04-25T00:59:09.127Z,84.52
2023-04-25T01:00:09.026Z,84.66
2023-04-25T01:01:09.066Z,84.92
2023-04-25T01:02:09.021Z,84.41
2023-04-25T01:03:09.045Z,84.52
2023-04-25T01:04:09.006Z,84.55
2023-04-25T01:05:08.918Z,84.76
2023-04-25T01:06:08.857Z,84.76
2023-04-25T01:07:08.790Z,84.66
2023-04-25T01:08:08.761Z,84.76
2023-04-25T01:09:08.727Z,84.66
2023-04-25T01:10:08.690Z,84.55
2023-04-25T01:11:08.698Z,84.45
2023-04-25T01:12:08.622Z,84.72
2023-04-25T01:13:08.601Z,84.34
2023-04-25T01:14:08.563Z,84.55
2023-04-25T01:15:08.533Z,84.31
2023-04-25T01:16:08.515Z,84.82
2023-04-25T01:17:08.684Z,84.34
2023-04-25T01:18:08.458Z,84.10
2023-04-25T01:19:08.410Z,83.90
2023-04-25T01:20:08.401Z,83.69
2023-04-25T01:21:08.405Z,84.04
2023-04-25T01:22:08.294Z,84.61
2023-04-25T01:23:08.254Z,84.25
2023-04-25T01:24:08.209Z,83.59
2023-04-25T01:25:08.184Z,83.28
2023-04-25T01:26:08.213Z,83.18
2023-04-25T01:27:08.122Z,83.80
2023-04-25T01:28:08.080Z,83.59
2023-04-25T01:29:08.042Z,83.94
2023-04-25T01:30:08.012Z,83.69
2023-04-25T01:31:07.970Z,83.63
2023-04-25T01:32:08.072Z,83.12
2023-04-25T01:33:07.989Z,83.18
2023-04-25T01:34:07.867Z,84.20
2023-04-25T01:35:07.840Z,83.28
2023-04-25T01:36:07.827Z,83.32
2023-04-25T01:37:07.819Z,83.12
2023-04-25T01:38:07.737Z,83.59
2023-04-25T01:39:07.699Z,83.07
2023-04-25T01:40:07.670Z,83.18
2023-04-25T01:41:07.646Z,82.77
2023-04-25T01:42:07.710Z,83.18
2023-04-25T01:43:07.571Z,83.39
2023-04-25T01:44:07.523Z,83.39
2023-04-25T01:45:07.496Z,83.63
2023-04-25T01:46:07.502Z,83.42
2023-04-25T01:47:07.436Z,83.63
2023-04-25T01:48:07.547Z,83.32
2023-04-25T01:49:07.357Z,83.32
2023-04-25T01:50:07.339Z,83.90
2023-04-25T01:51:07.295Z,84.31
2023-04-25T01:52:07.259Z,84.20
2023-04-25T01:53:07.236Z,84.45
2023-04-25T01:54:07.246Z,83.69
2023-04-25T01:55:07.176Z,83.07
2023-04-25T01:56:07.141Z,83.42
2023-04-25T01:57:07.090Z,83.32
2023-04-25T01:58:07.049Z,83.42
2023-04-25T01:59:07.100Z,83.12
2023-04-25T02:00:06.982Z,83.42
2023-04-25T02:01:06.984Z,83.42
2023-04-25T02:02:06.928Z,83.53
2023-04-25T02:03:06.990Z,83.73
2023-04-25T02:04:07.015Z,83.73
2023-04-25T02:05:06.867Z,84.14
2023-04-25T02:06:06.781Z,84.25
2023-04-25T02:07:06.748Z,84.34
2023-04-25T02:08:06.736Z,84.25
2023-04-25T02:09:06.680Z,84.76
2023-04-25T02:10:06.641Z,84.34
2023-04-25T02:11:06.676Z,84.45
2023-04-25T02:12:06.574Z,84.25
2023-04-25T02:13:06.551Z,84.25
2023-04-25T02:14:06.509Z,84.76
2023-04-25T02:15:06.467Z,84.76
2023-04-25T02:16:06.470Z,84.55
2023-04-25T02:17:06.534Z,84.66
2023-04-25T02:18:06.430Z,84.86
2023-04-25T02:19:06.345Z,84.34
2023-04-25T02:20:06.300Z,84.04
2023-04-25T02:21:06.282Z,84.76
2023-04-25T02:22:06.242Z,84.96
2023-04-25T02:23:06.260Z,84.86
2023-04-25T02:24:06.183Z,84.59
2023-04-25T02:25:06.135Z,84.69
2023-04-25T02:26:06.101Z,84.08
2023-04-25T02:27:06.076Z,84.80
2023-04-25T02:28:06.163Z,84.80
2023-04-25T02:29:06.014Z,84.80
2023-04-25T02:30:05.986Z,84.69
2023-04-25T02:31:05.961Z,85.00
2023-04-25T02:32:05.896Z,84.90
2023-04-25T02:33:05.939Z,84.90
2023-04-25T02:34:05.884Z,84.90
2023-04-25T02:35:05.786Z,84.69
2023-04-25T02:36:05.760Z,85.00
2023-04-25T02:37:05.731Z,84.80
2023-04-25T02:38:05.709Z,85.00
2023-04-25T02:39:05.650Z,85.31
2023-04-25T02:40:05.672Z,84.90
2023-04-25T02:41:05.585Z,85.00
2023-04-25T02:42:05.569Z,84.90
2023-04-25T02:43:05.519Z,84.90
2023-04-25T02:44:05.482Z,85.31
2023-04-25T02:45:05.522Z,85.21
2023-04-25T02:46:05.476Z,84.39
2023-04-25T02:47:05.452Z,84.90
2023-04-25T02:48:05.409Z,84.69
2023-04-25T02:49:05.316Z,85.00
2023-04-25T02:50:05.285Z,84.69
2023-04-25T02:51:05.328Z,84.90
2023-04-25T02:52:05.225Z,84.28
2023-04-25T02:53:05.188Z,84.90
2023-04-25T02:54:05.135Z,85.11
2023-04-25T02:55:05.103Z,85.41
2023-04-25T02:56:05.126Z,85.41
2023-04-25T02:57:05.047Z,85.21
2023-04-25T02:58:05.010Z,85.31
2023-04-25T02:59:04.966Z,85.31
2023-04-25T03:00:05.028Z,85.21
2023-04-25T03:01:04.912Z,85.52
2023-04-25T03:02:04.914Z,85.55
2023-04-25T03:03:04.912Z,85.55
2023-04-25T03:04:04.862Z,85.52
2023-04-25T03:05:04.757Z,85.46
2023-04-25T03:06:04.732Z,85.62
2023-04-25T03:07:04.778Z,85.46
2023-04-25T03:08:04.663Z,85.55
2023-04-25T03:09:04.669Z,85.82
2023-04-25T03:10:04.591Z,85.62
2023-04-25T03:11:04.564Z,86.17
2023-04-25T03:12:04.521Z,86.24
2023-04-25T03:13:04.538Z,86.38
2023-04-25T03:14:04.450Z,85.97
2023-04-25T03:15:04.423Z,86.17
2023-04-25T03:16:04.458Z,86.38
2023-04-25T03:17:04.357Z,86.58
2023-04-25T03:18:04.406Z,86.27
2023-04-25T03:19:04.280Z,85.97
2023-04-25T03:20:04.264Z,85.76
2023-04-25T03:21:04.214Z,85.35
2023-04-25T03:22:04.199Z,86.03
2023-04-25T03:23:04.200Z,85.97
2023-04-25T03:24:05.063Z,86.17
2023-04-25T03:25:04.235Z,86.27
2023-04-25T03:26:04.045Z,86.38
2023-04-25T03:27:04.013Z,86.68
2023-04-25T03:28:04.054Z,86.27
2023-04-25T03:29:03.939Z,86.17
2023-04-25T03:30:03.900Z,85.97
2023-04-25T03:31:03.881Z,86.27
2023-04-25T03:32:03.917Z,86.27
2023-04-25T03:33:03.858Z,86.07
2023-04-25T03:34:03.836Z,86.17
2023-04-25T03:35:03.806Z,86.38
2023-04-25T03:36:03.694Z,85.86
2023-04-25T03:37:03.675Z,86.79
2023-04-25T03:38:03.631Z,86.79
2023-04-25T03:39:03.608Z,86.99
2023-04-25T03:40:03.667Z,86.83
2023-04-25T03:41:03.534Z,86.21
2023-04-25T03:42:03.493Z,86.68
2023-04-25T03:43:03.469Z,86.99
2023-04-25T03:44:03.440Z,87.51
2023-04-25T03:45:03.405Z,87.10
2023-04-25T03:46:03.507Z,87.20
2023-04-25T03:47:03.342Z,87.30
2023-04-25T03:48:03.343Z,87.20
2023-04-25T03:49:03.252Z,87.20
2023-04-25T03:50:03.234Z,87.20
2023-04-25T03:51:03.193Z,86.83
2023-04-25T03:52:03.230Z,87.20
2023-04-25T03:53:03.123Z,86.93
2023-04-25T03:54:03.086Z,87.30
2023-04-25T03:55:03.063Z,87.10
2023-04-25T03:56:03.041Z,87.40
2023-04-25T03:57:03.050Z,87.10
2023-04-25T03:58:02.988Z,87.20
2023-04-25T03:59:02.917Z,87.04
2023-04-25T04:00:02.969Z,87.20
2023-04-25T04:01:02.863Z,87.40
2023-04-25T04:02:02.841Z,87.30
2023-04-25T04:03:02.881Z,87.45
2023-04-25T04:04:02.957Z,87.40
2023-04-25T04:05:02.836Z,87.61
2023-04-25T04:06:02.763Z,87.20
2023-04-25T04:07:02.679Z,87.20
2023-04-25T04:08:02.621Z,87.20
2023-04-25T04:09:02.577Z,87.40
2023-04-25T04:10:02.559Z,87.61
2023-04-25T04:11:02.543Z,87.61
2023-04-25T04:12:02.549Z,87.51
2023-04-25T04:13:02.434Z,87.61
2023-04-25T04:14:03.194Z,87.92
2023-04-25T04:15:02.364Z,87.46
2023-04-25T04:16:02.396Z,87.40
2023-04-25T04:17:02.378Z,87.10
2023-04-25T04:18:02.332Z,87.10
2023-04-25T04:19:02.243Z,87.26
2023-04-25T04:20:02.222Z,86.65
2023-04-25T04:21:02.197Z,87.16
2023-04-25T04:22:02.138Z,86.85
2023-04-25T04:23:02.193Z,87.16
2023-04-25T04:24:02.085Z,87.57
2023-04-25T04:25:02.071Z,87.37
2023-04-25T04:26:02.006Z,87.16
2023-04-25T04:27:01.979Z,87.26
2023-04-25T04:28:02.001Z,87.16
2023-04-25T04:29:01.914Z,87.67
2023-04-25T04:30:01.900Z,87.37
2023-04-25T04:31:01.846Z,87.16
2023-04-25T04:32:01.894Z,86.95
2023-04-25T04:33:01.880Z,86.85
2023-04-25T04:34:01.721Z,86.85
2023-04-25T04:35:01.692Z,87.16
2023-04-25T04:36:01.668Z,86.91
2023-04-25T04:37:01.655Z,86.91
2023-04-25T04:38:01.671Z,87.05
2023-04-25T04:39:01.554Z,87.16
2023-04-25T04:40:01.525Z,87.22
2023-04-25T04:41:01.508Z,87.12
2023-04-25T04:42:01.517Z,86.60
2023-04-25T04:43:01.478Z,86.81
2023-04-25T04:44:01.389Z,86.95
2023-04-25T04:45:01.365Z,87.26
2023-04-25T04:46:01.330Z,87.53
2023-04-25T04:47:01.353Z,87.67
2023-04-25T04:48:01.278Z,87.73
2023-04-25T04:49:01.305Z,87.94
2023-04-25T04:50:01.198Z,87.63
2023-04-25T04:51:01.171Z,88.04
2023-04-25T04:52:01.146Z,87.67
2023-04-25T04:53:01.101Z,88.04
2023-04-25T04:54:01.071Z,88.14
2023-04-25T04:55:01.149Z,87.67
2023-04-25T04:56:01.020Z,87.94
2023-04-25T04:57:01.002Z,87.84
2023-04-25T04:58:00.921Z,88.35
2023-04-25T04:59:00.970Z,88.56
2023-04-25T05:00:00.850Z,88.35
2023-04-25T05:01:00.861Z,88.45
2023-04-25T05:02:00.792Z,88.04
2023-04-25T05:03:00.900Z,88.45
2023-04-25T05:04:01.774Z,88.04
2023-04-25T05:05:00.700Z,87.73
2023-04-25T05:06:00.638Z,87.84
2023-04-25T05:07:00.613Z,88.04
2023-04-25T05:08:00.578Z,87.63
2023-04-25T05:09:00.606Z,88.04
2023-04-25T05:10:00.523Z,88.14
2023-04-25T05:11:00.508Z,87.59
2023-04-25T05:12:00.444Z,87.43
2023-04-25T05:13:00.399Z,87.49
2023-04-25T05:14:00.374Z,87.08
2023-04-25T05:15:00.421Z,87.22
2023-04-25T05:16:00.387Z,87.28
2023-04-25T05:17:00.389Z,87.49
2023-04-25T05:18:00.294Z,87.63
2023-04-25T05:19:00.235Z,87.38
2023-04-25T05:20:00.232Z,87.49
2023-04-25T05:21:00.145Z,87.18
2023-04-25T05:22:00.156Z,87.28
2023-04-25T05:23:00.146Z,87.18
2023-04-25T05:24:00.052Z,87.08
2023-04-25T05:25:00.079Z,86.93
2023-04-25T05:25:59.967Z,86.73
2023-04-25T05:27:00.005Z,86.07
2023-04-25T05:27:59.908Z,85.97
2023-04-25T05:28:59.878Z,86.07
2023-04-25T05:29:59.869Z,85.25
2023-04-25T05:30:59.895Z,84.80
2023-04-25T05:31:59.843Z,84.56
2023-04-25T05:32:59.781Z,84.46
2023-04-25T05:33:59.733Z,84.05
2023-04-25T05:34:59.721Z,84.05
2023-04-25T05:35:59.696Z,83.91
2023-04-25T05:36:59.674Z,83.25
2023-04-25T05:37:59.593Z,82.34
2023-04-25T05:38:59.563Z,82.75
2023-04-25T05:39:59.504Z,83.05
2023-04-25T05:40:59.537Z,83.15
2023-04-25T05:41:59.469Z,82.64
2023-04-25T05:42:59.402Z,82.34
2023-04-25T05:43:59.647Z,82.75
2023-04-25T05:44:59.373Z,82.68
2023-04-25T05:45:59.418Z,82.57
2023-04-25T05:46:59.283Z,82.48
2023-04-25T05:47:59.303Z,83.33
2023-04-25T05:48:59.251Z,83.44
2023-04-25T05:49:59.212Z,83.23
2023-04-25T05:50:59.156Z,83.09
2023-04-25T05:51:59.172Z,82.51
2023-04-25T05:52:59.088Z,82.41
2023-04-25T05:53:59.058Z,83.23
2023-04-25T05:54:59.021Z,83.44
2023-04-25T05:55:58.988Z,82.31
2023-04-25T05:56:58.986Z,83.03
2023-04-25T05:57:58.988Z,83.23
2023-04-25T05:58:58.942Z,82.98
2023-04-25T05:59:58.844Z,83.03
2023-04-25T06:00:58.833Z,82.71
2023-04-25T06:01:58.825Z,83.09
2023-04-25T06:02:59.033Z,82.98
2023-04-25T06:03:59.216Z,83.13
2023-04-25T06:04:58.946Z,83.13
2023-04-25T06:05:58.740Z,83.23
2023-04-25T06:06:58.639Z,83.33
2023-04-25T06:07:58.603Z,83.54
2023-04-25T06:08:58.554Z,83.44
2023-04-25T06:09:58.615Z,83.23
2023-04-25T06:10:58.473Z,83.44
2023-04-25T06:11:58.466Z,83.58
2023-04-25T06:12:58.431Z,83.23
2023-04-25T06:13:58.403Z,83.58
2023-04-25T06:14:58.369Z,83.33
2023-04-25T06:15:58.378Z,83.03
2023-04-25T06:16:58.303Z,83.64
2023-04-25T06:17:58.296Z,82.41
2023-04-25T06:18:58.224Z,82.62
2023-04-25T06:19:58.179Z,83.13
2023-04-25T06:20:58.147Z,82.76
2023-04-25T06:21:58.176Z,82.62
2023-04-25T06:22:58.079Z,82.51
2023-04-25T06:23:58.058Z,83.03
2023-04-25T06:24:58.056Z,83.13
2023-04-25T06:25:58.005Z,82.92
2023-04-25T06:26:57.957Z,82.62
2023-04-25T06:27:57.991Z,82.92
2023-04-25T06:28:57.919Z,82.82
2023-04-25T06:29:57.854Z,82.82
2023-04-25T06:30:57.822Z,83.17
2023-04-25T06:31:57.790Z,82.51
2023-04-25T06:32:57.787Z,83.17
2023-04-25T06:33:57.806Z,83.17
2023-04-25T06:34:57.686Z,83.23
2023-04-25T06:35:57.667Z,83.58
2023-04-25T06:36:57.627Z,84.60
2023-04-25T06:37:57.618Z,84.53
2023-04-25T06:38:57.587Z,84.53
2023-04-25T06:39:57.588Z,84.50
2023-04-25T06:40:57.507Z,84.44
2023-04-25T06:41:57.467Z,84.53
2023-04-25T06:42:57.445Z,84.64
2023-04-25T06:43:57.408Z,84.44
2023-04-25T06:44:57.367Z,84.39
2023-04-25T06:45:57.395Z,84.60
2023-04-25T06:46:57.319Z,84.74
2023-04-25T06:47:57.340Z,84.09
2023-04-25T06:48:57.225Z,84.50
2023-04-25T06:49:57.278Z,84.29
2023-04-25T06:50:57.158Z,84.50
2023-04-25T06:51:57.133Z,84.44
2023-04-25T06:52:57.086Z,84.74
2023-04-25T06:53:57.063Z,84.74
2023-04-25T06:54:57.035Z,85.87
2023-04-25T06:55:57.091Z,85.97
2023-04-25T06:56:56.968Z,86.18
2023-04-25T06:57:56.939Z,86.07
2023-04-25T06:58:56.890Z,85.39
2023-04-25T06:59:56.859Z,84.58
2023-04-25T07:00:56.927Z,84.78
2023-04-25T07:01:56.848Z,84.68
2023-04-25T07:02:56.867Z,84.78
2023-04-25T07:03:56.868Z,84.68
2023-04-25T07:04:56.838Z,84.58
2023-04-25T07:05:56.671Z,84.47
2023-04-25T07:06:56.664Z,84.47
2023-04-25T07:07:56.665Z,84.53
2023-04-25T07:08:56.576Z,84.44
2023-04-25T07:09:56.525Z,84.33
2023-04-25T07:10:56.521Z,83.20
2023-04-25T07:11:56.472Z,83.45
2023-04-25T07:12:56.441Z,83.45
2023-04-25T07:13:56.492Z,83.55
2023-04-25T07:14:56.392Z,84.23
2023-04-25T07:15:57.428Z,83.31
2023-04-25T07:16:56.332Z,83.61
2023-04-25T07:17:56.332Z,83.41
2023-04-25T07:18:56.336Z,83.00
2023-04-25T07:19:56.201Z,82.86
2023-04-25T07:20:56.162Z,81.77
2023-04-25T07:21:56.140Z,81.46
2023-04-25T07:22:56.116Z,81.77
2023-04-25T07:23:56.143Z,81.12
2023-04-25T07:24:56.094Z,81.36
2023-04-25T07:25:55.998Z,80.30
2023-04-25T07:26:55.965Z,80.60
2023-04-25T07:27:55.945Z,79.79
2023-04-25T07:28:55.896Z,79.24
2023-04-25T07:29:55.880Z,79.96
2023-04-25T07:30:55.888Z,79.30
2023-04-25T07:31:55.907Z,78.59
2023-04-25T07:32:55.826Z,78.17
2023-04-25T07:33:55.766Z,78.38
2023-04-25T07:34:55.763Z,78.08
2023-04-25T07:35:55.673Z,77.94
2023-04-25T07:36:55.701Z,77.83
2023-04-25T07:37:55.621Z,77.32
2023-04-25T07:38:55.577Z,77.76
2023-04-25T07:39:55.565Z,78.38
2023-04-25T07:40:55.509Z,78.69
2023-04-25T07:41:55.719Z,78.79
2023-04-25T07:42:55.550Z,79.91
2023-04-25T07:43:55.416Z,78.59
2023-04-25T07:44:55.384Z,79.20
2023-04-25T07:45:55.386Z,79.71
2023-04-25T07:46:55.336Z,80.12
2023-04-25T07:47:55.336Z,79.41
2023-04-25T07:48:55.340Z,80.22
2023-04-25T07:49:55.223Z,79.85
2023-04-25T07:50:55.177Z,80.77
2023-04-25T07:51:55.176Z,80.98
2023-04-25T07:52:55.121Z,80.83
2023-04-25T07:53:55.112Z,81.04
2023-04-25T07:54:55.122Z,80.63
2023-04-25T07:55:55.036Z,80.94
2023-04-25T07:56:55.001Z,80.83
2023-04-25T07:57:54.945Z,80.83
2023-04-25T07:58:54.917Z,79.68
2023-04-25T07:59:54.888Z,78.92
2023-04-25T08:00:54.917Z,78.07
2023-04-25T08:01:54.834Z,77.66
2023-04-25T08:02:54.916Z,76.64
2023-04-25T08:03:55.090Z,76.60
2023-04-25T08:04:54.873Z,76.46
2023-04-25T08:05:54.777Z,75.95
2023-04-25T08:06:54.812Z,75.92
2023-04-25T08:07:54.633Z,76.32
2023-04-25T08:08:54.595Z,75.95
2023-04-25T08:09:55.127Z,75.99
2023-04-25T08:10:54.530Z,76.06
2023-04-25T08:11:54.490Z,75.71
2023-04-25T08:12:54.526Z,75.82
2023-04-25T08:13:54.434Z,74.59
2023-04-25T08:14:54.408Z,73.88
2023-04-25T08:15:54.439Z,74.29
2023-04-25T08:16:54.340Z,74.25
2023-04-25T08:17:54.329Z,74.38
2023-04-25T08:18:54.478Z,74.35
2023-04-25T08:19:54.243Z,73.03
2023-04-25T08:20:54.221Z,73.13
2023-04-25T08:21:54.174Z,72.92
2023-04-25T08:22:54.152Z,72.75
2023-04-25T08:23:54.143Z,73.57
2023-04-25T08:24:54.158Z,74.59
2023-04-25T08:25:54.045Z,73.67
2023-04-25T08:26:54.025Z,72.92
2023-04-25T08:27:54.015Z,73.60
2023-04-25T08:28:53.984Z,74.08
2023-04-25T08:29:53.932Z,73.19
2023-04-25T08:30:54.208Z,69.90
2023-04-25T08:31:54.095Z,69.73
2023-04-25T08:32:53.931Z,70.61
2023-04-25T08:33:53.812Z,69.18
2023-04-25T08:34:53.768Z,67.96
2023-04-25T08:35:53.737Z,69.38
2023-04-25T08:36:53.787Z,68.74
2023-04-25T08:37:53.691Z,67.45
2023-04-25T08:38:55.288Z,65.41
2023-04-25T08:39:53.621Z,64.86
2023-04-25T08:40:53.580Z,66.31
2023-04-25T08:41:53.711Z,66.21
2023-04-25T08:42:53.510Z,65.70
2023-04-25T08:43:53.531Z,66.21
2023-04-25T08:44:53.496Z,65.73
2023-04-25T08:45:53.597Z,66.25
2023-04-25T08:46:53.525Z,66.14
2023-04-25T08:47:53.402Z,67.75
2023-04-25T08:48:55.575Z,68.94
2023-04-25T08:49:53.305Z,68.12
2023-04-25T08:50:53.276Z,68.30
2023-04-25T08:51:53.285Z,67.58
2023-04-25T08:52:53.210Z,67.76
2023-04-25T08:53:54.369Z,67.38
2023-04-25T08:54:53.153Z,64.53
2023-04-25T08:55:53.102Z,63.10
2023-04-25T08:56:53.129Z,62.90
2023-04-25T08:57:53.049Z,64.15
2023-04-25T08:58:53.250Z,63.71
2023-04-25T08:59:52.985Z,63.45
2023-04-25T09:00:53.049Z,62.26
2023-04-25T09:01:52.933Z,62.42
2023-04-25T09:02:53.054Z,63.13
2023-04-25T09:03:52.924Z,62.93
2023-04-25T09:04:52.838Z,63.75
2023-04-25T09:05:52.775Z,63.95
2023-04-25T09:06:52.762Z,64.36
2023-04-25T09:07:52.731Z,63.00
2023-04-25T09:08:52.841Z,62.16
2023-04-25T09:09:52.684Z,61.93
2023-04-25T09:10:52.655Z,61.61
2023-04-25T09:11:52.616Z,61.21
2023-04-25T09:12:52.560Z,62.33
2023-04-25T09:13:53.011Z,62.33
2023-04-25T09:14:52.514Z,62.66
2023-04-25T09:15:52.499Z,63.31
2023-04-25T09:16:52.463Z,64.40
2023-04-25T09:17:52.450Z,62.84
2023-04-25T09:18:52.413Z,62.94
2023-04-25T09:19:52.405Z,63.01
2023-04-25T09:21:52.280Z,61.15
2023-04-25T09:22:52.261Z,61.05
2023-04-25T09:23:52.447Z,61.15
2023-04-25T09:24:52.304Z,59.93
2023-04-25T09:25:52.174Z,60.27
2023-04-25T09:26:52.180Z,59.35
2023-04-25T09:27:52.118Z,59.38
2023-04-25T09:28:52.071Z,60.30
2023-04-25T09:29:52.035Z,60.09
2023-04-25T09:30:52.087Z,59.45
2023-04-25T09:31:52.048Z,60.06
2023-04-25T09:32:51.997Z,59.35
2023-04-25T09:33:54.589Z,59.66
2023-04-25T09:34:51.938Z,59.07
2023-04-25T09:35:51.876Z,59.35
2023-04-25T09:36:51.918Z,58.03
2023-04-25T09:37:51.832Z,57.85
2023-04-25T09:38:51.762Z,57.62
2023-04-25T09:39:51.738Z,57.69
2023-04-25T09:40:51.698Z,56.57
2023-04-25T09:41:51.671Z,56.40
2023-04-25T09:42:51.705Z,56.37
2023-04-25T09:43:51.612Z,56.77
2023-04-25T09:44:51.577Z,56.75
2023-04-25T09:45:51.576Z,56.45
2023-04-25T09:46:51.517Z,56.55
2023-04-25T09:47:51.689Z,56.65
2023-04-25T09:48:51.469Z,56.77
2023-04-25T09:49:51.427Z,55.66
2023-04-25T09:50:51.391Z,56.47
2023-04-25T09:51:51.372Z,57.79
2023-04-25T09:52:51.355Z,56.27
2023-04-25T09:53:51.618Z,56.16
2023-04-25T09:54:51.268Z,56.68
2023-04-25T09:55:51.269Z,56.27
2023-04-25T09:56:51.215Z,56.40
2023-04-25T09:57:51.179Z,56.45
2023-04-25T09:58:51.141Z,56.57
2023-04-25T09:59:51.233Z,56.77
2023-04-25T10:00:51.127Z,56.77
2023-04-25T10:01:51.112Z,56.37
2023-04-25T10:02:51.127Z,56.04
2023-04-25T10:03:51.174Z,55.55
2023-04-25T10:04:51.056Z,55.94
2023-04-25T10:05:51.044Z,55.73
2023-04-25T10:06:50.909Z,54.64
2023-04-25T10:07:50.876Z,56.50
2023-04-25T10:08:50.846Z,56.40
2023-04-25T10:09:50.818Z,56.07
2023-04-25T10:10:50.779Z,55.76
2023-04-25T10:11:50.819Z,55.35
2023-04-25T10:12:50.743Z,56.24
2023-04-25T10:13:50.894Z,55.10
2023-04-25T10:14:50.662Z,54.59
2023-04-25T10:15:50.686Z,55.12
2023-04-25T10:16:50.622Z,54.31
2023-04-25T10:17:50.665Z,54.13
2023-04-25T10:18:50.569Z,54.49
2023-04-25T10:19:50.530Z,56.55
2023-04-25T10:20:51.501Z,56.96
2023-04-25T10:21:50.458Z,56.15
2023-04-25T10:22:50.422Z,56.55
2023-04-25T10:23:50.760Z,56.83
2023-04-25T10:24:50.362Z,56.63
2023-04-25T10:25:50.338Z,57.04
2023-04-25T10:26:50.332Z,55.91
2023-04-25T10:27:50.329Z,56.02
2023-04-25T10:28:50.237Z,56.40
2023-04-25T10:29:50.284Z,55.38
2023-04-25T10:30:50.340Z,54.94
2023-04-25T10:31:50.162Z,54.54
2023-04-25T10:32:50.143Z,54.59
2023-04-25T10:33:50.260Z,54.90
2023-04-25T10:34:50.046Z,53.98
2023-04-25T10:35:50.081Z,55.33
2023-04-25T10:36:49.985Z,55.81
2023-04-25T10:37:49.964Z,54.39
2023-04-25T10:38:49.937Z,55.10
2023-04-25T10:39:49.895Z,53.96
2023-04-25T10:40:49.898Z,54.18
2023-04-25T10:41:49.925Z,54.33
2023-04-25T10:42:49.819Z,54.79
2023-04-25T10:43:50.054Z,55.71
2023-04-25T10:44:49.747Z,55.51
2023-04-25T10:45:49.722Z,55.61
2023-04-25T10:46:49.749Z,54.59
2023-04-25T10:47:49.766Z,55.00
2023-04-25T10:48:49.624Z,56.52
2023-04-25T10:49:49.605Z,56.02
2023-04-25T10:50:49.561Z,55.81
2023-04-25T10:51:55.310Z,56.32
2023-04-25T10:52:49.497Z,56.12
2023-04-25T10:53:49.688Z,56.02
2023-04-25T10:54:49.433Z,55.81
2023-04-25T10:55:49.406Z,56.20
2023-04-25T10:56:49.383Z,56.60
2023-04-25T10:57:49.357Z,56.20
2023-04-25T10:58:51.181Z,55.79
2023-04-25T10:59:49.332Z,55.71
2023-04-25T11:01:49.343Z,56.63
2023-04-25T11:02:49.400Z,56.40
2023-04-25T11:03:49.253Z,56.24
2023-04-25T11:04:49.235Z,56.60
2023-04-25T11:05:57.854Z,58.16
2023-04-25T11:06:49.265Z,58.47
2023-04-25T11:07:59.473Z,58.26
2023-04-25T11:08:49.371Z,59.39
2023-04-25T11:09:48.980Z,58.06
2023-04-25T11:10:50.241Z,58.60
2023-04-25T11:11:48.979Z,58.19
2023-04-25T11:12:48.911Z,58.52
2023-04-25T11:13:48.860Z,59.44
2023-04-25T11:14:48.836Z,59.62
2023-04-25T11:15:54.780Z,58.70
2023-04-25T11:16:48.820Z,58.09
2023-04-25T11:17:48.968Z,57.04
2023-04-25T11:18:48.858Z,56.56
2023-04-25T11:19:48.684Z,57.24
2023-04-25T11:20:48.649Z,56.68
2023-04-25T11:21:48.634Z,55.33
2023-04-25T11:22:50.377Z,54.39
2023-04-25T11:23:48.918Z,54.69
2023-04-25T11:24:48.575Z,54.18
2023-04-25T11:25:48.484Z,53.06
2023-04-25T11:26:48.454Z,52.66
2023-04-25T11:27:48.414Z,53.39
2023-04-25T11:28:48.471Z,53.98
2023-04-25T11:29:48.350Z,53.29
2023-04-25T11:30:48.323Z,53.29
2023-04-25T11:31:48.333Z,53.52
2023-04-25T11:32:48.290Z,54.16
2023-04-25T11:33:48.560Z,53.96
2023-04-25T11:34:48.360Z,54.18
2023-04-25T11:35:48.163Z,54.57
2023-04-25T11:36:48.175Z,54.16
2023-04-25T11:37:48.119Z,54.16
2023-04-25T11:38:48.135Z,54.57
2023-04-25T11:39:48.144Z,54.64
2023-04-25T11:40:48.141Z,54.44
2023-04-25T11:41:47.985Z,54.33
2023-04-25T11:42:47.966Z,54.64
2023-04-25T11:43:47.948Z,54.64
2023-04-25T11:44:47.887Z,55.05
2023-04-25T11:45:47.998Z,54.94
2023-04-25T11:46:47.877Z,55.56
2023-04-25T11:47:47.924Z,54.33
2023-04-25T11:48:47.887Z,53.31
2023-04-25T11:49:47.724Z,53.52
2023-04-25T11:50:47.703Z,53.83
2023-04-25T11:51:47.666Z,53.50
2023-04-25T11:52:47.715Z,53.39
2023-04-25T11:53:47.626Z,52.15
2023-04-25T11:54:47.598Z,51.53
2023-04-25T11:55:47.535Z,51.74
2023-04-25T11:56:47.525Z,51.43
2023-04-25T11:57:47.476Z,52.15
2023-04-25T11:58:47.537Z,52.25
2023-04-25T11:59:47.440Z,52.15
2023-04-25T12:00:50.494Z,51.53
2023-04-25T12:01:47.355Z,51.72
2023-04-25T12:02:47.461Z,50.70
2023-04-25T12:03:47.546Z,50.87
2023-04-25T12:04:47.481Z,50.06
2023-04-25T12:05:47.674Z,51.08
2023-04-25T12:06:47.229Z,50.87
2023-04-25T12:07:47.181Z,51.56
2023-04-25T12:08:47.156Z,51.14
2023-04-25T12:09:47.098Z,50.12
2023-04-25T12:10:47.136Z,50.55
2023-04-25T12:11:47.074Z,50.47
2023-04-25T12:12:47.019Z,51.54
2023-04-25T12:13:46.976Z,50.83
2023-04-25T12:14:46.955Z,50.73
2023-04-25T12:15:46.967Z,50.93
2023-04-25T12:16:46.954Z,51.23
2023-04-25T12:17:46.934Z,51.23
2023-04-25T12:18:46.834Z,50.57
2023-04-25T12:19:46.853Z,50.29
2023-04-25T12:20:46.762Z,51.15
2023-04-25T12:21:57.168Z,51.46
2023-04-25T12:22:46.708Z,52.20
2023-04-25T12:23:46.675Z,52.40
2023-04-25T12:24:46.708Z,53.44
2023-04-25T12:25:46.652Z,52.73
2023-04-25T12:26:46.578Z,54.08
2023-04-25T12:27:46.566Z,53.98
2023-04-25T12:28:46.531Z,53.98
2023-04-25T12:29:49.822Z,54.39
2023-04-25T12:30:46.456Z,54.41
2023-04-25T12:31:46.495Z,54.21
2023-04-25T12:32:46.429Z,54.90
2023-04-25T12:33:46.470Z,55.00
2023-04-25T12:34:46.348Z,54.79
2023-04-25T12:35:46.362Z,54.87
2023-04-25T12:36:46.283Z,54.36
2023-04-25T12:37:46.287Z,54.26
2023-04-25T12:38:46.239Z,54.16
2023-04-25T12:39:46.191Z,56.10
2023-04-25T12:40:46.156Z,54.77
2023-04-25T12:41:46.161Z,54.13
2023-04-25T12:42:46.087Z,55.46
2023-04-25T12:43:46.090Z,54.79
2023-04-25T12:44:46.031Z,54.90
2023-04-25T12:45:46.000Z,55.61
2023-04-25T12:46:45.992Z,54.28
2023-04-25T12:47:46.052Z,53.88
2023-04-25T12:48:45.907Z,54.21
2023-04-25T12:49:45.869Z,53.70
2023-04-25T12:50:45.845Z,53.83
2023-04-25T12:51:45.806Z,54.44
2023-04-25T12:52:45.778Z,54.21
2023-04-25T12:53:45.810Z,54.41